sensor_id;sensor_type;location;lat;lon;timestamp;P1;durP1;ratioP1;P2;durP2;ratioP2
38427;SDS011;24211;49.980;19.776;2023-03-14T00:00:15;27.30;;;11.10;;
38427;SDS011;24211;49.980;19.776;2023-03-14T00:03:04;26.73;;;10.65;;
38427;SDS011;24211;49.980;19.776;2023-03-14T00:05:31;24.92;;;10.85;;
38427;SDS011;24211;49.980;19.776;2023-03-14T00:07:58;26.75;;;10.65;;
38427;SDS011;24211;49.980;19.776;2023-03-14T00:10:25;23.40;;;10.15;;
38427;SDS011;24211;49.980;19.776;2023-03-14T00:12:52;21.25;;;9.50;;
38427;SDS011;24211;49.980;19.776;2023-03-14T00:15:19;22.23;;;9.50;;
38427;SDS011;24211;49.980;19.776;2023-03-14T00:17:46;21.42;;;8.75;;
38427;SDS011;24211;49.980;19.776;2023-03-14T00:20:13;18.83;;;8.30;;
38427;SDS011;24211;49.980;19.776;2023-03-14T00:22:41;16.63;;;7.68;;
38427;SDS011;24211;49.980;19.776;2023-03-14T00:25:09;19.58;;;7.53;;
38427;SDS011;24211;49.980;19.776;2023-03-14T00:27:38;16.55;;;6.60;;
38427;SDS011;24211;49.980;19.776;2023-03-14T00:30:05;18.17;;;7.05;;
38427;SDS011;24211;49.980;19.776;2023-03-14T00:32:34;16.17;;;6.65;;
38427;SDS011;24211;49.980;19.776;2023-03-14T00:35:02;16.45;;;7.22;;
38427;SDS011;24211;49.980;19.776;2023-03-14T00:37:30;18.67;;;7.35;;
38427;SDS011;24211;49.980;19.776;2023-03-14T00:39:57;23.63;;;10.82;;
38427;SDS011;24211;49.980;19.776;2023-03-14T00:42:25;13.45;;;6.90;;
38427;SDS011;24211;49.980;19.776;2023-03-14T00:44:52;21.52;;;7.95;;
38427;SDS011;24211;49.980;19.776;2023-03-14T00:47:19;16.33;;;6.47;;
38427;SDS011;24211;49.980;19.776;2023-03-14T00:49:46;16.25;;;6.15;;
38427;SDS011;24211;49.980;19.776;2023-03-14T00:52:14;15.25;;;6.45;;
38427;SDS011;24211;49.980;19.776;2023-03-14T00:54:41;25.08;;;11.52;;
38427;SDS011;24211;49.980;19.776;2023-03-14T00:57:08;22.98;;;9.48;;
38427;SDS011;24211;49.980;19.776;2023-03-14T00:59:35;21.63;;;9.32;;
38427;SDS011;24211;49.980;19.776;2023-03-14T01:02:03;29.58;;;10.13;;
38427;SDS011;24211;49.980;19.776;2023-03-14T01:04:30;33.33;;;8.93;;
38427;SDS011;24211;49.980;19.776;2023-03-14T01:06:58;19.27;;;7.47;;
38427;SDS011;24211;49.980;19.776;2023-03-14T01:09:25;21.05;;;7.57;;
38427;SDS011;24211;49.980;19.776;2023-03-14T01:11:52;15.57;;;6.78;;
38427;SDS011;24211;49.980;19.776;2023-03-14T01:14:19;15.00;;;6.60;;
38427;SDS011;24211;49.980;19.776;2023-03-14T01:16:46;15.48;;;5.80;;
38427;SDS011;24211;49.980;19.776;2023-03-14T01:19:13;14.88;;;6.10;;
38427;SDS011;24211;49.980;19.776;2023-03-14T01:21:41;16.90;;;5.95;;
38427;SDS011;24211;49.980;19.776;2023-03-14T01:24:10;20.23;;;6.38;;
38427;SDS011;24211;49.980;19.776;2023-03-14T01:26:38;20.02;;;7.00;;
38427;SDS011;24211;49.980;19.776;2023-03-14T01:29:07;19.63;;;6.72;;
38427;SDS011;24211;49.980;19.776;2023-03-14T01:31:37;16.67;;;6.40;;
38427;SDS011;24211;49.980;19.776;2023-03-14T01:34:04;17.05;;;6.35;;
38427;SDS011;24211;49.980;19.776;2023-03-14T01:36:32;17.52;;;6.95;;
38427;SDS011;24211;49.980;19.776;2023-03-14T01:39:02;18.50;;;6.53;;
38427;SDS011;24211;49.980;19.776;2023-03-14T01:41:29;16.35;;;6.43;;
38427;SDS011;24211;49.980;19.776;2023-03-14T01:43:58;22.35;;;9.18;;
38427;SDS011;24211;49.980;19.776;2023-03-14T01:46:26;14.68;;;5.90;;
38427;SDS011;24211;49.980;19.776;2023-03-14T01:49:26;10.25;;;4.13;;
38427;SDS011;24211;49.980;19.776;2023-03-14T01:55:02;9.05;;;3.90;;
38427;SDS011;24211;49.980;19.776;2023-03-14T01:57:37;13.32;;;5.43;;
38427;SDS011;24211;49.980;19.776;2023-03-14T02:00:13;16.02;;;5.45;;
38427;SDS011;24211;49.980;19.776;2023-03-14T02:02:49;11.63;;;5.13;;
38427;SDS011;24211;49.980;19.776;2023-03-14T02:05:23;13.80;;;5.82;;
38427;SDS011;24211;49.980;19.776;2023-03-14T02:08:07;13.88;;;5.18;;
38427;SDS011;24211;49.980;19.776;2023-03-14T02:10:49;12.40;;;4.63;;
38427;SDS011;24211;49.980;19.776;2023-03-14T02:13:23;10.98;;;4.75;;
38427;SDS011;24211;49.980;19.776;2023-03-14T02:16:09;11.25;;;4.00;;
38427;SDS011;24211;49.980;19.776;2023-03-14T02:18:46;17.38;;;5.60;;
38427;SDS011;24211;49.980;19.776;2023-03-14T02:24:38;9.43;;;3.70;;
38427;SDS011;24211;49.980;19.776;2023-03-14T02:27:20;14.23;;;5.63;;
38427;SDS011;24211;49.980;19.776;2023-03-14T02:29:53;30.00;;;9.68;;
38427;SDS011;24211;49.980;19.776;2023-03-14T02:32:41;9.57;;;4.30;;
38427;SDS011;24211;49.980;19.776;2023-03-14T02:35:15;11.82;;;3.63;;
38427;SDS011;24211;49.980;19.776;2023-03-14T02:37:51;12.02;;;4.05;;
38427;SDS011;24211;49.980;19.776;2023-03-14T02:40:34;12.32;;;4.68;;
38427;SDS011;24211;49.980;19.776;2023-03-14T02:43:01;13.48;;;4.18;;
38427;SDS011;24211;49.980;19.776;2023-03-14T02:48:11;10.75;;;3.65;;
38427;SDS011;24211;49.980;19.776;2023-03-14T02:50:48;9.65;;;3.78;;
38427;SDS011;24211;49.980;19.776;2023-03-14T02:53:21;10.55;;;3.88;;
38427;SDS011;24211;49.980;19.776;2023-03-14T02:55:55;10.45;;;3.70;;
38427;SDS011;24211;49.980;19.776;2023-03-14T02:58:23;10.50;;;3.78;;
38427;SDS011;24211;49.980;19.776;2023-03-14T03:00:58;7.30;;;3.33;;
38427;SDS011;24211;49.980;19.776;2023-03-14T03:03:26;9.13;;;3.53;;
38427;SDS011;24211;49.980;19.776;2023-03-14T03:05:55;9.73;;;3.50;;
38427;SDS011;24211;49.980;19.776;2023-03-14T03:08:24;9.15;;;3.30;;
38427;SDS011;24211;49.980;19.776;2023-03-14T03:10:54;8.70;;;3.45;;
38427;SDS011;24211;49.980;19.776;2023-03-14T03:13:25;7.32;;;3.25;;
38427;SDS011;24211;49.980;19.776;2023-03-14T03:15:55;7.07;;;2.95;;
38427;SDS011;24211;49.980;19.776;2023-03-14T03:18:22;6.78;;;2.70;;
38427;SDS011;24211;49.980;19.776;2023-03-14T03:20:49;8.52;;;2.90;;
38427;SDS011;24211;49.980;19.776;2023-03-14T03:23:16;7.18;;;3.00;;
38427;SDS011;24211;49.980;19.776;2023-03-14T03:25:47;8.90;;;3.58;;
38427;SDS011;24211;49.980;19.776;2023-03-14T03:28:16;7.75;;;3.10;;
38427;SDS011;24211;49.980;19.776;2023-03-14T03:30:44;8.27;;;3.30;;
38427;SDS011;24211;49.980;19.776;2023-03-14T03:33:12;6.72;;;2.70;;
38427;SDS011;24211;49.980;19.776;2023-03-14T03:35:44;8.23;;;2.90;;
38427;SDS011;24211;49.980;19.776;2023-03-14T03:38:17;6.88;;;2.75;;
38427;SDS011;24211;49.980;19.776;2023-03-14T03:40:48;7.45;;;2.65;;
38427;SDS011;24211;49.980;19.776;2023-03-14T03:43:16;5.43;;;2.53;;
38427;SDS011;24211;49.980;19.776;2023-03-14T03:45:47;7.72;;;3.10;;
38427;SDS011;24211;49.980;19.776;2023-03-14T03:48:14;7.88;;;2.72;;
38427;SDS011;24211;49.980;19.776;2023-03-14T03:50:45;5.75;;;2.55;;
38427;SDS011;24211;49.980;19.776;2023-03-14T03:53:16;6.47;;;2.30;;
38427;SDS011;24211;49.980;19.776;2023-03-14T03:56:00;5.55;;;2.33;;
38427;SDS011;24211;49.980;19.776;2023-03-14T03:58:27;8.68;;;2.90;;
38427;SDS011;24211;49.980;19.776;2023-03-14T04:00:55;5.68;;;2.95;;
38427;SDS011;24211;49.980;19.776;2023-03-14T04:03:22;7.72;;;3.15;;
38427;SDS011;24211;49.980;19.776;2023-03-14T04:06:06;7.80;;;3.33;;
38427;SDS011;24211;49.980;19.776;2023-03-14T04:08:38;7.55;;;3.05;;
38427;SDS011;24211;49.980;19.776;2023-03-14T04:11:09;8.15;;;3.28;;
38427;SDS011;24211;49.980;19.776;2023-03-14T04:14:02;7.07;;;2.92;;
38427;SDS011;24211;49.980;19.776;2023-03-14T04:16:31;6.85;;;2.83;;
38427;SDS011;24211;49.980;19.776;2023-03-14T04:19:04;7.05;;;3.13;;
38427;SDS011;24211;49.980;19.776;2023-03-14T04:21:32;8.75;;;3.08;;
38427;SDS011;24211;49.980;19.776;2023-03-14T04:23:59;9.45;;;3.50;;
38427;SDS011;24211;49.980;19.776;2023-03-14T04:26:30;6.53;;;3.00;;
38427;SDS011;24211;49.980;19.776;2023-03-14T04:28:57;6.60;;;3.00;;
38427;SDS011;24211;49.980;19.776;2023-03-14T04:31:26;8.27;;;3.65;;
38427;SDS011;24211;49.980;19.776;2023-03-14T04:33:54;7.30;;;3.60;;
38427;SDS011;24211;49.980;19.776;2023-03-14T04:36:45;7.65;;;3.05;;
38427;SDS011;24211;49.980;19.776;2023-03-14T04:39:17;7.78;;;3.50;;
38427;SDS011;24211;49.980;19.776;2023-03-14T04:41:52;7.35;;;3.22;;
38427;SDS011;24211;49.980;19.776;2023-03-14T04:44:19;7.55;;;3.13;;
38427;SDS011;24211;49.980;19.776;2023-03-14T04:46:49;8.63;;;3.33;;
38427;SDS011;24211;49.980;19.776;2023-03-14T04:49:17;7.55;;;3.63;;
38427;SDS011;24211;49.980;19.776;2023-03-14T04:51:44;8.25;;;3.72;;
38427;SDS011;24211;49.980;19.776;2023-03-14T04:54:12;7.45;;;3.38;;
38427;SDS011;24211;49.980;19.776;2023-03-14T04:56:39;8.10;;;3.33;;
38427;SDS011;24211;49.980;19.776;2023-03-14T04:59:07;8.68;;;3.63;;
38427;SDS011;24211;49.980;19.776;2023-03-14T05:01:36;7.70;;;3.40;;
38427;SDS011;24211;49.980;19.776;2023-03-14T05:04:34;7.32;;;3.50;;
38427;SDS011;24211;49.980;19.776;2023-03-14T05:07:20;7.35;;;3.50;;
38427;SDS011;24211;49.980;19.776;2023-03-14T05:10:16;10.75;;;4.20;;
38427;SDS011;24211;49.980;19.776;2023-03-14T05:12:54;9.63;;;3.97;;
38427;SDS011;24211;49.980;19.776;2023-03-14T05:15:48;7.45;;;3.55;;
38427;SDS011;24211;49.980;19.776;2023-03-14T05:18:43;12.38;;;5.47;;
38427;SDS011;24211;49.980;19.776;2023-03-14T05:21:22;19.27;;;10.10;;
38427;SDS011;24211;49.980;19.776;2023-03-14T05:24:22;11.25;;;5.40;;
38427;SDS011;24211;49.980;19.776;2023-03-14T05:26:57;11.07;;;4.90;;
38427;SDS011;24211;49.980;19.776;2023-03-14T05:29:56;25.33;;;12.73;;
38427;SDS011;24211;49.980;19.776;2023-03-14T05:32:44;15.57;;;7.35;;
38427;SDS011;24211;49.980;19.776;2023-03-14T05:35:18;14.02;;;7.13;;
38427;SDS011;24211;49.980;19.776;2023-03-14T05:37:52;14.82;;;5.63;;
38427;SDS011;24211;49.980;19.776;2023-03-14T05:40:46;13.30;;;5.55;;
38427;SDS011;24211;49.980;19.776;2023-03-14T05:43:32;10.73;;;5.03;;
38427;SDS011;24211;49.980;19.776;2023-03-14T05:46:22;11.65;;;5.03;;
38427;SDS011;24211;49.980;19.776;2023-03-14T05:48:57;10.73;;;4.78;;
38427;SDS011;24211;49.980;19.776;2023-03-14T05:51:50;12.48;;;5.75;;
38427;SDS011;24211;49.980;19.776;2023-03-14T05:54:25;10.93;;;4.80;;
38427;SDS011;24211;49.980;19.776;2023-03-14T05:56:52;12.20;;;5.25;;
38427;SDS011;24211;49.980;19.776;2023-03-14T05:59:38;13.50;;;5.32;;
38427;SDS011;24211;49.980;19.776;2023-03-14T06:02:34;18.02;;;8.20;;
38427;SDS011;24211;49.980;19.776;2023-03-14T06:05:11;17.50;;;6.97;;
38427;SDS011;24211;49.980;19.776;2023-03-14T06:07:40;16.17;;;6.40;;
38427;SDS011;24211;49.980;19.776;2023-03-14T06:10:07;13.52;;;6.20;;
38427;SDS011;24211;49.980;19.776;2023-03-14T06:12:36;14.25;;;6.22;;
38427;SDS011;24211;49.980;19.776;2023-03-14T06:15:03;18.08;;;7.70;;
38427;SDS011;24211;49.980;19.776;2023-03-14T06:17:32;15.05;;;5.97;;
38427;SDS011;24211;49.980;19.776;2023-03-14T06:22:34;15.50;;;6.85;;
38427;SDS011;24211;49.980;19.776;2023-03-14T06:25:03;10.35;;;5.03;;
38427;SDS011;24211;49.980;19.776;2023-03-14T06:27:32;14.95;;;6.00;;
38427;SDS011;24211;49.980;19.776;2023-03-14T06:30:00;15.40;;;5.95;;
38427;SDS011;24211;49.980;19.776;2023-03-14T06:32:29;16.08;;;6.25;;
38427;SDS011;24211;49.980;19.776;2023-03-14T06:35:03;11.35;;;5.00;;
38427;SDS011;24211;49.980;19.776;2023-03-14T06:37:36;9.88;;;4.55;;
38427;SDS011;24211;49.980;19.776;2023-03-14T06:40:04;14.23;;;4.68;;
38427;SDS011;24211;49.980;19.776;2023-03-14T06:43:08;10.52;;;4.13;;
38427;SDS011;24211;49.980;19.776;2023-03-14T06:45:37;10.57;;;4.00;;
38427;SDS011;24211;49.980;19.776;2023-03-14T06:48:05;8.60;;;3.42;;
38427;SDS011;24211;49.980;19.776;2023-03-14T06:50:47;10.45;;;3.65;;
38427;SDS011;24211;49.980;19.776;2023-03-14T06:53:15;16.02;;;5.55;;
38427;SDS011;24211;49.980;19.776;2023-03-14T06:55:43;13.45;;;4.80;;
38427;SDS011;24211;49.980;19.776;2023-03-14T06:58:14;11.25;;;4.00;;
38427;SDS011;24211;49.980;19.776;2023-03-14T07:00:43;9.85;;;4.18;;
38427;SDS011;24211;49.980;19.776;2023-03-14T07:03:15;8.13;;;3.25;;
38427;SDS011;24211;49.980;19.776;2023-03-14T07:05:47;9.15;;;3.47;;
38427;SDS011;24211;49.980;19.776;2023-03-14T07:08:15;10.57;;;3.58;;
38427;SDS011;24211;49.980;19.776;2023-03-14T07:10:42;7.25;;;3.15;;
38427;SDS011;24211;49.980;19.776;2023-03-14T07:13:10;8.07;;;3.47;;
38427;SDS011;24211;49.980;19.776;2023-03-14T07:15:48;9.73;;;3.42;;
38427;SDS011;24211;49.980;19.776;2023-03-14T07:18:16;7.05;;;3.17;;
38427;SDS011;24211;49.980;19.776;2023-03-14T07:20:44;9.02;;;3.25;;
38427;SDS011;24211;49.980;19.776;2023-03-14T07:23:14;8.75;;;3.40;;
38427;SDS011;24211;49.980;19.776;2023-03-14T07:25:48;6.72;;;2.95;;
38427;SDS011;24211;49.980;19.776;2023-03-14T07:28:17;8.32;;;3.38;;
38427;SDS011;24211;49.980;19.776;2023-03-14T07:30:46;10.38;;;3.80;;
38427;SDS011;24211;49.980;19.776;2023-03-14T07:33:19;9.95;;;3.97;;
38427;SDS011;24211;49.980;19.776;2023-03-14T07:35:47;10.50;;;3.50;;
38427;SDS011;24211;49.980;19.776;2023-03-14T07:38:16;7.53;;;3.15;;
38427;SDS011;24211;49.980;19.776;2023-03-14T07:41:15;7.75;;;3.28;;
38427;SDS011;24211;49.980;19.776;2023-03-14T07:43:58;7.68;;;2.80;;
38427;SDS011;24211;49.980;19.776;2023-03-14T07:46:25;5.93;;;2.72;;
38427;SDS011;24211;49.980;19.776;2023-03-14T07:48:52;6.47;;;2.80;;
38427;SDS011;24211;49.980;19.776;2023-03-14T07:51:19;7.22;;;2.65;;
38427;SDS011;24211;49.980;19.776;2023-03-14T07:53:46;6.63;;;2.47;;
38427;SDS011;24211;49.980;19.776;2023-03-14T07:56:13;5.88;;;2.40;;
38427;SDS011;24211;49.980;19.776;2023-03-14T07:58:40;5.78;;;2.50;;
38427;SDS011;24211;49.980;19.776;2023-03-14T08:01:07;7.63;;;2.70;;
38427;SDS011;24211;49.980;19.776;2023-03-14T08:03:35;7.45;;;2.53;;
38427;SDS011;24211;49.980;19.776;2023-03-14T08:06:02;4.57;;;2.08;;
38427;SDS011;24211;49.980;19.776;2023-03-14T08:08:29;5.38;;;2.53;;
38427;SDS011;24211;49.980;19.776;2023-03-14T08:11:01;5.22;;;2.42;;
38427;SDS011;24211;49.980;19.776;2023-03-14T08:13:31;6.60;;;2.47;;
38427;SDS011;24211;49.980;19.776;2023-03-14T08:15:58;6.82;;;2.42;;
38427;SDS011;24211;49.980;19.776;2023-03-14T08:18:25;5.22;;;2.10;;
38427;SDS011;24211;49.980;19.776;2023-03-14T08:20:52;5.88;;;2.42;;
38427;SDS011;24211;49.980;19.776;2023-03-14T08:23:19;5.53;;;2.40;;
38427;SDS011;24211;49.980;19.776;2023-03-14T08:25:48;6.13;;;2.58;;
38427;SDS011;24211;49.980;19.776;2023-03-14T08:28:17;4.75;;;2.10;;
38427;SDS011;24211;49.980;19.776;2023-03-14T08:30:45;4.78;;;2.47;;
38427;SDS011;24211;49.980;19.776;2023-03-14T08:33:13;5.05;;;2.28;;
38427;SDS011;24211;49.980;19.776;2023-03-14T08:35:41;5.72;;;2.05;;
38427;SDS011;24211;49.980;19.776;2023-03-14T08:38:08;5.82;;;2.20;;
38427;SDS011;24211;49.980;19.776;2023-03-14T08:40:35;6.40;;;2.13;;
38427;SDS011;24211;49.980;19.776;2023-03-14T08:43:03;4.78;;;2.00;;
38427;SDS011;24211;49.980;19.776;2023-03-14T08:45:30;6.95;;;2.00;;
38427;SDS011;24211;49.980;19.776;2023-03-14T08:47:57;4.75;;;2.10;;
38427;SDS011;24211;49.980;19.776;2023-03-14T08:50:36;5.57;;;2.13;;
38427;SDS011;24211;49.980;19.776;2023-03-14T08:53:03;4.65;;;1.77;;
38427;SDS011;24211;49.980;19.776;2023-03-14T08:55:30;5.43;;;1.90;;
38427;SDS011;24211;49.980;19.776;2023-03-14T08:57:58;4.55;;;1.90;;
38427;SDS011;24211;49.980;19.776;2023-03-14T09:00:25;12.00;;;1.70;;
38427;SDS011;24211;49.980;19.776;2023-03-14T09:02:52;4.13;;;1.60;;
38427;SDS011;24211;49.980;19.776;2023-03-14T09:05:19;3.80;;;1.80;;
38427;SDS011;24211;49.980;19.776;2023-03-14T09:07:46;5.22;;;2.20;;
38427;SDS011;24211;49.980;19.776;2023-03-14T09:10:13;3.92;;;1.80;;
38427;SDS011;24211;49.980;19.776;2023-03-14T09:12:41;4.22;;;1.88;;
38427;SDS011;24211;49.980;19.776;2023-03-14T09:15:08;4.85;;;2.05;;
38427;SDS011;24211;49.980;19.776;2023-03-14T09:17:36;4.55;;;1.95;;
38427;SDS011;24211;49.980;19.776;2023-03-14T09:20:03;4.18;;;1.90;;
38427;SDS011;24211;49.980;19.776;2023-03-14T09:22:33;5.88;;;2.17;;
38427;SDS011;24211;49.980;19.776;2023-03-14T09:25:02;4.55;;;1.95;;
38427;SDS011;24211;49.980;19.776;2023-03-14T09:27:31;5.13;;;2.30;;
38427;SDS011;24211;49.980;19.776;2023-03-14T09:29:58;5.72;;;2.03;;
38427;SDS011;24211;49.980;19.776;2023-03-14T09:32:25;5.18;;;2.22;;
38427;SDS011;24211;49.980;19.776;2023-03-14T09:34:52;6.10;;;2.53;;
38427;SDS011;24211;49.980;19.776;2023-03-14T09:37:20;6.00;;;2.90;;
38427;SDS011;24211;49.980;19.776;2023-03-14T09:39:47;6.30;;;3.33;;
38427;SDS011;24211;49.980;19.776;2023-03-14T09:42:15;5.90;;;3.08;;
38427;SDS011;24211;49.980;19.776;2023-03-14T09:47:27;5.43;;;2.80;;
38427;SDS011;24211;49.980;19.776;2023-03-14T09:49:54;6.45;;;3.03;;
38427;SDS011;24211;49.980;19.776;2023-03-14T09:52:23;5.93;;;2.80;;
38427;SDS011;24211;49.980;19.776;2023-03-14T09:57:56;6.43;;;3.40;;
38427;SDS011;24211;49.980;19.776;2023-03-14T10:00:30;9.10;;;4.15;;
38427;SDS011;24211;49.980;19.776;2023-03-14T10:05:55;7.65;;;3.88;;
38427;SDS011;24211;49.980;19.776;2023-03-14T10:08:23;7.20;;;3.80;;
38427;SDS011;24211;49.980;19.776;2023-03-14T10:10:50;8.60;;;3.40;;
38427;SDS011;24211;49.980;19.776;2023-03-14T10:13:19;7.97;;;3.42;;
38427;SDS011;24211;49.980;19.776;2023-03-14T10:15:59;6.38;;;3.10;;
38427;SDS011;24211;49.980;19.776;2023-03-14T10:18:30;6.47;;;2.60;;
38427;SDS011;24211;49.980;19.776;2023-03-14T10:21:28;4.35;;;2.00;;
38427;SDS011;24211;49.980;19.776;2023-03-14T10:24:18;4.25;;;1.67;;
38427;SDS011;24211;49.980;19.776;2023-03-14T10:26:57;5.57;;;2.00;;
38427;SDS011;24211;49.980;19.776;2023-03-14T10:29:32;4.95;;;1.73;;
38427;SDS011;24211;49.980;19.776;2023-03-14T10:32:05;5.82;;;1.50;;
38427;SDS011;24211;49.980;19.776;2023-03-14T10:34:37;4.90;;;1.90;;
38427;SDS011;24211;49.980;19.776;2023-03-14T10:37:15;5.40;;;1.67;;
38427;SDS011;24211;49.980;19.776;2023-03-14T10:39:49;3.58;;;1.70;;
38427;SDS011;24211;49.980;19.776;2023-03-14T10:42:25;4.25;;;1.80;;
38427;SDS011;24211;49.980;19.776;2023-03-14T10:45:02;6.05;;;2.20;;
38427;SDS011;24211;49.980;19.776;2023-03-14T10:47:36;5.65;;;1.83;;
38427;SDS011;24211;49.980;19.776;2023-03-14T10:50:24;6.65;;;2.05;;
38427;SDS011;24211;49.980;19.776;2023-03-14T10:52:57;3.83;;;1.83;;
38427;SDS011;24211;49.980;19.776;2023-03-14T10:55:39;4.18;;;2.08;;
38427;SDS011;24211;49.980;19.776;2023-03-14T10:58:21;3.65;;;1.70;;
38427;SDS011;24211;49.980;19.776;2023-03-14T11:03:51;3.95;;;1.83;;
38427;SDS011;24211;49.980;19.776;2023-03-14T11:09:45;4.63;;;2.03;;
38427;SDS011;24211;49.980;19.776;2023-03-14T11:12:34;7.45;;;1.88;;
38427;SDS011;24211;49.980;19.776;2023-03-14T11:27:28;5.05;;;1.70;;
38427;SDS011;24211;49.980;19.776;2023-03-14T11:33:16;4.50;;;1.70;;
38427;SDS011;24211;49.980;19.776;2023-03-14T11:36:02;3.72;;;1.83;;
38427;SDS011;24211;49.980;19.776;2023-03-14T11:41:25;4.32;;;1.90;;
38427;SDS011;24211;49.980;19.776;2023-03-14T11:43:59;4.70;;;1.90;;
38427;SDS011;24211;49.980;19.776;2023-03-14T11:46:36;4.35;;;1.77;;
38427;SDS011;24211;49.980;19.776;2023-03-14T11:49:24;3.83;;;1.65;;
38427;SDS011;24211;49.980;19.776;2023-03-14T11:52:09;4.88;;;1.70;;
38427;SDS011;24211;49.980;19.776;2023-03-14T11:54:49;3.58;;;1.73;;
38427;SDS011;24211;49.980;19.776;2023-03-14T11:57:22;4.38;;;2.00;;
38427;SDS011;24211;49.980;19.776;2023-03-14T12:03:03;5.35;;;2.00;;
38427;SDS011;24211;49.980;19.776;2023-03-14T12:06:04;3.28;;;1.30;;
38427;SDS011;24211;49.980;19.776;2023-03-14T12:08:55;5.43;;;1.67;;
38427;SDS011;24211;49.980;19.776;2023-03-14T12:11:32;4.72;;;1.70;;
38427;SDS011;24211;49.980;19.776;2023-03-14T12:17:06;4.97;;;1.70;;
38427;SDS011;24211;49.980;19.776;2023-03-14T12:20:02;3.95;;;1.63;;
38427;SDS011;24211;49.980;19.776;2023-03-14T12:22:45;4.30;;;1.48;;
38427;SDS011;24211;49.980;19.776;2023-03-14T12:25:27;4.30;;;1.65;;
38427;SDS011;24211;49.980;19.776;2023-03-14T12:35:37;3.58;;;1.60;;
38427;SDS011;24211;49.980;19.776;2023-03-14T12:38:09;3.88;;;1.75;;
38427;SDS011;24211;49.980;19.776;2023-03-14T12:43:53;3.85;;;1.75;;
38427;SDS011;24211;49.980;19.776;2023-03-14T12:46:25;5.15;;;2.05;;
38427;SDS011;24211;49.980;19.776;2023-03-14T12:48:54;3.72;;;1.75;;
38427;SDS011;24211;49.980;19.776;2023-03-14T12:51:30;4.30;;;2.00;;
38427;SDS011;24211;49.980;19.776;2023-03-14T12:57:06;5.20;;;2.00;;
38427;SDS011;24211;49.980;19.776;2023-03-14T13:00:13;4.65;;;1.83;;
38427;SDS011;24211;49.980;19.776;2023-03-14T13:02:49;5.53;;;2.03;;
38427;SDS011;24211;49.980;19.776;2023-03-14T13:05:18;4.68;;;1.85;;
38427;SDS011;24211;49.980;19.776;2023-03-14T13:10:25;3.97;;;1.95;;
38427;SDS011;24211;49.980;19.776;2023-03-14T13:15:46;4.07;;;1.83;;
38427;SDS011;24211;49.980;19.776;2023-03-14T13:18:19;4.50;;;1.92;;
38427;SDS011;24211;49.980;19.776;2023-03-14T13:21:05;3.42;;;1.65;;
38427;SDS011;24211;49.980;19.776;2023-03-14T13:23:53;4.03;;;1.98;;
38427;SDS011;24211;49.980;19.776;2023-03-14T13:26:34;3.88;;;1.73;;
38427;SDS011;24211;49.980;19.776;2023-03-14T13:29:14;5.03;;;2.00;;
38427;SDS011;24211;49.980;19.776;2023-03-14T13:32:01;4.78;;;2.10;;
38427;SDS011;24211;49.980;19.776;2023-03-14T13:34:43;4.35;;;1.90;;
38427;SDS011;24211;49.980;19.776;2023-03-14T13:37:19;6.30;;;2.03;;
38427;SDS011;24211;49.980;19.776;2023-03-14T13:39:50;5.13;;;2.13;;
38427;SDS011;24211;49.980;19.776;2023-03-14T13:42:19;5.18;;;2.22;;
38427;SDS011;24211;49.980;19.776;2023-03-14T13:44:47;4.25;;;2.03;;
38427;SDS011;24211;49.980;19.776;2023-03-14T13:47:15;5.45;;;2.05;;
38427;SDS011;24211;49.980;19.776;2023-03-14T13:49:46;4.57;;;2.10;;
38427;SDS011;24211;49.980;19.776;2023-03-14T13:55:02;4.72;;;2.10;;
38427;SDS011;24211;49.980;19.776;2023-03-14T14:00:22;6.15;;;2.10;;
38427;SDS011;24211;49.980;19.776;2023-03-14T14:02:54;4.90;;;2.00;;
38427;SDS011;24211;49.980;19.776;2023-03-14T14:05:28;5.20;;;2.10;;
38427;SDS011;24211;49.980;19.776;2023-03-14T14:07:57;5.20;;;2.20;;
38427;SDS011;24211;49.980;19.776;2023-03-14T14:10:25;6.75;;;2.40;;
38427;SDS011;24211;49.980;19.776;2023-03-14T14:12:57;5.10;;;2.28;;
38427;SDS011;24211;49.980;19.776;2023-03-14T14:15:31;6.97;;;2.67;;
38427;SDS011;24211;49.980;19.776;2023-03-14T14:18:07;5.28;;;2.72;;
38427;SDS011;24211;49.980;19.776;2023-03-14T14:20:42;7.47;;;3.83;;
38427;SDS011;24211;49.980;19.776;2023-03-14T14:23:14;10.02;;;4.53;;
38427;SDS011;24211;49.980;19.776;2023-03-14T14:25:52;9.25;;;4.72;;
38427;SDS011;24211;49.980;19.776;2023-03-14T14:34:01;6.88;;;3.38;;
38427;SDS011;24211;49.980;19.776;2023-03-14T14:36:37;7.57;;;3.50;;
38427;SDS011;24211;49.980;19.776;2023-03-14T14:39:18;7.15;;;3.58;;
38427;SDS011;24211;49.980;19.776;2023-03-14T14:41:55;8.57;;;3.80;;
38427;SDS011;24211;49.980;19.776;2023-03-14T14:44:32;8.65;;;4.20;;
38427;SDS011;24211;49.980;19.776;2023-03-14T14:47:03;9.70;;;4.55;;
38427;SDS011;24211;49.980;19.776;2023-03-14T14:49:31;11.40;;;5.10;;
38427;SDS011;24211;49.980;19.776;2023-03-14T14:52:15;11.68;;;5.60;;
38427;SDS011;24211;49.980;19.776;2023-03-14T14:55:00;11.10;;;5.45;;
38427;SDS011;24211;49.980;19.776;2023-03-14T14:57:30;10.05;;;4.68;;
38427;SDS011;24211;49.980;19.776;2023-03-14T15:00:05;11.65;;;4.85;;
38427;SDS011;24211;49.980;19.776;2023-03-14T15:02:40;10.35;;;5.25;;
38427;SDS011;24211;49.980;19.776;2023-03-14T15:07:47;14.27;;;6.05;;
38427;SDS011;24211;49.980;19.776;2023-03-14T15:10:21;12.65;;;5.97;;
38427;SDS011;24211;49.980;19.776;2023-03-14T15:12:52;15.45;;;6.53;;
38427;SDS011;24211;49.980;19.776;2023-03-14T15:15:19;12.73;;;5.80;;
38427;SDS011;24211;49.980;19.776;2023-03-14T15:17:47;10.18;;;4.60;;
38427;SDS011;24211;49.980;19.776;2023-03-14T15:20:15;8.07;;;4.10;;
38427;SDS011;24211;49.980;19.776;2023-03-14T15:22:46;6.87;;;3.43;;
38427;SDS011;24211;49.980;19.776;2023-03-14T15:25:13;7.70;;;2.85;;
38427;SDS011;24211;49.980;19.776;2023-03-14T15:28:02;6.05;;;2.78;;
38427;SDS011;24211;49.980;19.776;2023-03-14T15:30:29;5.63;;;2.50;;
38427;SDS011;24211;49.980;19.776;2023-03-14T15:32:57;7.53;;;2.85;;
38427;SDS011;24211;49.980;19.776;2023-03-14T15:35:24;5.50;;;2.33;;
38427;SDS011;24211;49.980;19.776;2023-03-14T15:37:51;5.88;;;2.55;;
38427;SDS011;24211;49.980;19.776;2023-03-14T15:40:26;6.93;;;2.35;;
38427;SDS011;24211;49.980;19.776;2023-03-14T15:42:56;4.70;;;2.10;;
38427;SDS011;24211;49.980;19.776;2023-03-14T15:45:23;5.40;;;2.03;;
38427;SDS011;24211;49.980;19.776;2023-03-14T15:47:50;6.03;;;2.50;;
38427;SDS011;24211;49.980;19.776;2023-03-14T15:50:18;5.60;;;2.13;;
38427;SDS011;24211;49.980;19.776;2023-03-14T15:52:45;4.50;;;2.10;;
38427;SDS011;24211;49.980;19.776;2023-03-14T15:55:12;5.35;;;2.13;;
38427;SDS011;24211;49.980;19.776;2023-03-14T15:57:42;4.45;;;2.00;;
38427;SDS011;24211;49.980;19.776;2023-03-14T16:00:14;4.45;;;2.10;;
38427;SDS011;24211;49.980;19.776;2023-03-14T16:02:45;5.32;;;2.22;;
38427;SDS011;24211;49.980;19.776;2023-03-14T16:05:12;4.00;;;1.98;;
38427;SDS011;24211;49.980;19.776;2023-03-14T16:07:40;6.25;;;2.58;;
38427;SDS011;24211;49.980;19.776;2023-03-14T16:10:08;6.70;;;2.53;;
38427;SDS011;24211;49.980;19.776;2023-03-14T16:12:38;7.63;;;2.85;;
38427;SDS011;24211;49.980;19.776;2023-03-14T16:15:06;10.07;;;3.25;;
38427;SDS011;24211;49.980;19.776;2023-03-14T16:17:35;8.95;;;3.58;;
38427;SDS011;24211;49.980;19.776;2023-03-14T16:20:04;9.60;;;3.40;;
38427;SDS011;24211;49.980;19.776;2023-03-14T16:22:32;11.27;;;3.42;;
38427;SDS011;24211;49.980;19.776;2023-03-14T16:25:03;11.20;;;3.75;;
38427;SDS011;24211;49.980;19.776;2023-03-14T16:27:32;9.55;;;4.00;;